createdAt,value
2023-04-11T00:00:29.133Z,100801.06
2023-04-11T00:03:00.247Z,100797.81
2023-04-11T00:05:31.407Z,100795.22
2023-04-11T00:07:57.872Z,100800.06
2023-04-11T00:10:24.491Z,100797.13
2023-04-11T00:12:51.034Z,100800.97
2023-04-11T00:15:19.904Z,100804.59
2023-04-11T00:17:46.378Z,100801.34
2023-04-11T00:20:13.152Z,100801.34
2023-04-11T00:22:39.673Z,100792.94
2023-04-11T00:25:07.117Z,100799.88
2023-04-11T00:27:33.577Z,100797.28
2023-04-11T00:30:00.116Z,100791.66
2023-04-11T00:32:27.088Z,100796.16
2023-04-11T00:34:53.607Z,100798.47
2023-04-11T00:37:23.012Z,100794.09
2023-04-11T00:39:55.894Z,100780.13
2023-04-11T00:42:22.310Z,100796.97
2023-04-11T00:44:48.815Z,100799.28
2023-04-11T00:47:15.549Z,100798.63
2023-04-11T00:49:42.180Z,100799.94
2023-04-11T00:52:08.653Z,100802.22
2023-04-11T00:54:35.236Z,100801.47
2023-04-11T00:57:04.085Z,100803.53
2023-04-11T00:59:32.083Z,100799.78
2023-04-11T01:01:59.182Z,100793.34
2023-04-11T01:04:29.702Z,100795.56
2023-04-11T01:06:59.529Z,100796.31
2023-04-11T01:09:27.522Z,100807.69
2023-04-11T01:11:54.163Z,100816.25
2023-04-11T01:14:20.663Z,100802.47
2023-04-11T01:16:48.522Z,100800.34
2023-04-11T01:19:26.561Z,100805.38
2023-04-11T01:21:54.376Z,100800.84
2023-04-11T01:24:20.933Z,100805.13
2023-04-11T01:26:47.614Z,100803.50
2023-04-11T01:29:14.057Z,100806.75
2023-04-11T01:31:40.794Z,100821.13
2023-04-11T01:34:07.790Z,100811.13
2023-04-11T01:36:34.304Z,100803.72
2023-04-11T01:39:01.381Z,100808.06
2023-04-11T01:41:29.684Z,100817.75
2023-04-11T01:43:56.684Z,100812.06
2023-04-11T01:46:23.579Z,100822.41
2023-04-11T01:48:50.557Z,100824.47
2023-04-11T01:51:17.146Z,100826.56
2023-04-11T01:53:45.977Z,100833.22
2023-04-11T01:56:12.885Z,100828.84
2023-04-11T01:58:39.525Z,100827.41
2023-04-11T02:01:06.121Z,100840.81
2023-04-11T02:03:32.757Z,100834.47
2023-04-11T02:05:59.312Z,100839.47
2023-04-11T02:08:25.873Z,100850.72
2023-04-11T02:10:52.349Z,100849.66
2023-04-11T02:13:19.040Z,100855.50
2023-04-11T02:15:45.537Z,100868.94
2023-04-11T02:18:12.050Z,100857.47
2023-04-11T02:20:40.566Z,100854.06
2023-04-11T02:23:07.369Z,100864.78
2023-04-11T02:25:33.889Z,100864.41
2023-04-11T02:28:00.466Z,100870.75
2023-04-11T02:30:26.919Z,100875.50
2023-04-11T02:32:53.500Z,100864.16
2023-04-11T02:35:20.158Z,100869.53
2023-04-11T02:37:46.550Z,100865.59
2023-04-11T02:40:13.123Z,100870.16
2023-04-11T02:42:42.911Z,100870.03
2023-04-11T02:45:09.813Z,100869.84
2023-04-11T02:47:36.513Z,100867.38
2023-04-11T02:50:03.115Z,100871.13
2023-04-11T02:52:29.563Z,100870.75
2023-04-11T02:54:56.145Z,100868.03
2023-04-11T02:57:22.543Z,100871.66
2023-04-11T02:59:49.021Z,100873.69
2023-04-11T03:02:15.553Z,100867.41
2023-04-11T03:04:42.590Z,100872.44
2023-04-11T03:07:08.973Z,100870.88
2023-04-11T03:09:35.510Z,100881.31
2023-04-11T03:12:02.025Z,100874.09
2023-04-11T03:14:28.501Z,100876.34
2023-04-11T03:16:54.918Z,100871.13
2023-04-11T03:19:21.426Z,100871.31
2023-04-11T03:21:47.835Z,100871.13
2023-04-11T03:24:14.279Z,100877.88
2023-04-11T03:26:40.991Z,100873.75
2023-04-11T03:29:07.403Z,100874.09
2023-04-11T03:31:33.901Z,100879.53
2023-04-11T03:34:00.407Z,100877.22
2023-04-11T03:36:27.111Z,100879.44
2023-04-11T03:38:53.786Z,100885.00
2023-04-11T03:41:20.508Z,100885.78
2023-04-11T03:43:46.973Z,100893.72
2023-04-11T03:46:13.445Z,100887.06
2023-04-11T03:48:39.911Z,100881.19
2023-04-11T03:51:07.613Z,100901.41
2023-04-11T03:53:34.179Z,100894.97
2023-04-11T03:56:01.483Z,100902.44
2023-04-11T03:58:28.023Z,100901.13
2023-04-11T04:00:54.524Z,100900.47
2023-04-11T04:03:21.185Z,100905.13
2023-04-11T04:05:47.827Z,100921.16
2023-04-11T04:08:14.283Z,100912.03
2023-04-11T04:10:40.702Z,100932.22
2023-04-11T04:13:07.176Z,100927.72
2023-04-11T04:15:33.825Z,100929.19
2023-04-11T04:18:00.414Z,100928.81
2023-04-11T04:20:26.909Z,100922.31
2023-04-11T04:22:53.903Z,100927.78
2023-04-11T04:25:20.550Z,100935.81
2023-04-11T04:27:47.605Z,100930.00
2023-04-11T04:30:19.192Z,100943.75
2023-04-11T04:32:46.062Z,100936.19
2023-04-11T04:35:14.116Z,100943.78
2023-04-11T04:37:45.600Z,100946.56
2023-04-11T04:40:13.872Z,100951.06
2023-04-11T04:42:44.105Z,100957.09
2023-04-11T04:45:13.404Z,100965.56
2023-04-11T04:47:39.978Z,100965.50
2023-04-11T04:50:07.093Z,100973.75
2023-04-11T04:52:33.665Z,100970.88
2023-04-11T04:55:01.090Z,100958.22
2023-04-11T04:57:28.825Z,100983.88
2023-04-11T04:59:56.185Z,100979.69
2023-04-11T05:02:22.909Z,100985.50
2023-04-11T05:04:50.257Z,100990.66
2023-04-11T05:07:18.187Z,100985.38
2023-04-11T05:09:44.958Z,100996.91
2023-04-11T05:12:11.593Z,101001.13
2023-04-11T05:14:38.058Z,101005.78
2023-04-11T05:17:04.919Z,101009.97
2023-04-11T05:19:32.406Z,101011.34
2023-04-11T05:21:58.941Z,101005.38
2023-04-11T05:24:25.685Z,101012.81
2023-04-11T05:26:52.157Z,101024.13
2023-04-11T05:29:18.626Z,101023.84
2023-04-11T05:31:45.239Z,101025.31
2023-04-11T05:34:11.678Z,101030.09
2023-04-11T05:36:38.126Z,101024.25
2023-04-11T05:39:04.531Z,101038.75
2023-04-11T05:41:31.152Z,101039.84
2023-04-11T05:43:57.790Z,101042.94
2023-04-11T05:46:24.727Z,101050.84
2023-04-11T05:48:51.308Z,101048.78
2023-04-11T05:51:17.752Z,101049.19
2023-04-11T05:53:44.842Z,101060.19
2023-04-11T05:56:12.892Z,101064.41
2023-04-11T05:58:39.774Z,101058.53
2023-04-11T06:01:07.220Z,101062.75
2023-04-11T06:03:33.951Z,101070.88
2023-04-11T06:06:00.655Z,101071.84
2023-04-11T06:08:27.577Z,101073.47
2023-04-11T06:10:54.040Z,101035.06
2023-04-11T06:13:20.824Z,101073.69
2023-04-11T06:15:47.458Z,101069.38
2023-04-11T06:18:13.956Z,101073.38
2023-04-11T06:20:40.444Z,101079.59
2023-04-11T06:23:07.116Z,101074.53
2023-04-11T06:25:33.622Z,101064.31
2023-04-11T06:28:00.104Z,101082.53
2023-04-11T06:30:26.581Z,101081.41
2023-04-11T06:32:53.063Z,101091.28
2023-04-11T06:35:20.445Z,101086.25
2023-04-11T06:37:47.256Z,101097.28
2023-04-11T06:40:13.842Z,101088.84
2023-04-11T06:42:40.291Z,101095.88
2023-04-11T06:45:07.195Z,101093.66
2023-04-11T06:47:33.819Z,101116.38
2023-04-11T06:50:00.370Z,101097.16
2023-04-11T06:52:28.262Z,101104.31
2023-04-11T06:54:54.856Z,101119.53
2023-04-11T06:57:21.371Z,101101.88
2023-04-11T06:59:47.866Z,101115.97
2023-04-11T07:02:14.666Z,101106.88
2023-04-11T07:04:41.947Z,101113.31
2023-04-11T07:07:08.414Z,101129.31
2023-04-11T07:09:36.327Z,101125.63
2023-04-11T07:12:02.913Z,101133.59
2023-04-11T07:14:29.420Z,101125.28
2023-04-11T07:16:55.894Z,101122.44
2023-04-11T07:19:22.437Z,101117.00
2023-04-11T07:21:48.893Z,101132.31
2023-04-11T07:24:18.442Z,101126.06
2023-04-11T07:26:46.351Z,101139.16
2023-04-11T07:29:14.738Z,101125.97
2023-04-11T07:31:41.596Z,101132.38
2023-04-11T07:34:08.128Z,101140.25
2023-04-11T07:36:34.945Z,101133.00
2023-04-11T07:39:01.548Z,101146.03
2023-04-11T07:41:28.113Z,101135.88
2023-04-11T07:43:54.689Z,101159.09
2023-04-11T07:46:21.414Z,101138.72
2023-04-11T07:48:47.944Z,101159.22
2023-04-11T07:51:14.346Z,101159.72
2023-04-11T07:53:40.815Z,101138.31
2023-04-11T07:56:07.764Z,101161.22
2023-04-11T07:58:34.210Z,101164.06
2023-04-11T08:01:02.526Z,101161.91
2023-04-11T08:03:29.246Z,101170.41
2023-04-11T08:05:56.153Z,101174.44
2023-04-11T08:08:22.625Z,101179.72
2023-04-11T08:10:51.463Z,101177.53
2023-04-11T08:13:18.793Z,101180.66
2023-04-11T08:15:45.736Z,101190.31
2023-04-11T08:18:12.612Z,101191.09
2023-04-11T08:20:40.631Z,101199.59
2023-04-11T08:23:08.702Z,101177.81
2023-04-11T08:25:36.534Z,101180.50
2023-04-11T08:28:04.599Z,101187.59
2023-04-11T08:30:31.011Z,101198.13
2023-04-11T08:32:57.617Z,101177.22
2023-04-11T08:35:24.196Z,101220.94
2023-04-11T08:37:50.664Z,101202.59
2023-04-11T08:40:17.137Z,101207.81
2023-04-11T08:42:44.008Z,101200.34
2023-04-11T08:45:11.100Z,101222.28
2023-04-11T08:47:37.989Z,101215.78
2023-04-11T08:50:05.979Z,101224.72
2023-04-11T08:52:33.447Z,101218.53
2023-04-11T08:55:00.528Z,101217.09
2023-04-11T08:57:31.403Z,101231.56
2023-04-11T09:00:00.774Z,101226.97
2023-04-11T09:02:27.815Z,101227.41
2023-04-11T09:04:55.030Z,101231.22
2023-04-11T09:07:21.990Z,101234.63
2023-04-11T09:09:48.418Z,101238.16
2023-04-11T09:12:14.956Z,101251.84
2023-04-11T09:14:41.935Z,101239.63
2023-04-11T09:17:13.653Z,101233.81
2023-04-11T09:19:42.281Z,101241.53
2023-04-11T09:22:08.726Z,101231.97
2023-04-11T09:24:36.593Z,101236.13
2023-04-11T09:27:15.555Z,101235.19
2023-04-11T09:29:48.445Z,101245.25
2023-04-11T09:32:35.311Z,101239.91
2023-04-11T09:35:20.244Z,101243.75
2023-04-11T09:37:53.720Z,101245.25
2023-04-11T09:40:23.100Z,101236.84
2023-04-11T09:42:57.235Z,101238.00
2023-04-11T09:45:24.573Z,101253.66
2023-04-11T09:47:53.468Z,101230.16
2023-04-11T09:50:20.477Z,101283.75
2023-04-11T09:52:47.275Z,101238.84
2023-04-11T09:55:16.424Z,101250.75
2023-04-11T09:57:48.119Z,101254.72
2023-04-11T10:00:18.323Z,101248.47
2023-04-11T10:02:48.835Z,101247.38
2023-04-11T10:05:18.016Z,101258.34
2023-04-11T10:07:46.771Z,101254.13
2023-04-11T10:10:19.815Z,101256.59
2023-04-11T10:12:46.623Z,101251.38
2023-04-11T10:15:13.927Z,101238.59
2023-04-11T10:17:43.318Z,101247.00
2023-04-11T10:20:39.119Z,101260.59
2023-04-11T10:23:05.875Z,101256.53
2023-04-11T10:25:50.897Z,101247.09
2023-04-11T10:28:38.457Z,101255.38
2023-04-11T10:31:17.250Z,101254.47
2023-04-11T10:34:16.363Z,101261.47
2023-04-11T10:37:04.027Z,101255.38
2023-04-11T10:39:52.047Z,101274.88
2023-04-11T10:42:31.804Z,101268.72
2023-04-11T10:45:13.508Z,101271.81
2023-04-11T10:47:40.091Z,101269.69
2023-04-11T10:50:29.909Z,101273.66
2023-04-11T10:53:06.762Z,101272.63
2023-04-11T10:55:50.611Z,101259.69
2023-04-11T10:58:22.007Z,101267.22
2023-04-11T11:00:51.433Z,101276.75
2023-04-11T11:03:30.219Z,101270.78
2023-04-11T11:06:06.324Z,101276.88
2023-04-11T11:08:32.748Z,101287.59
2023-04-11T11:11:03.805Z,101284.28
2023-04-11T11:13:39.759Z,101289.75
2023-04-11T11:16:07.604Z,101302.72
2023-04-11T11:18:34.408Z,101289.50
2023-04-11T11:21:01.031Z,101293.47
2023-04-11T11:23:27.493Z,101301.59
2023-04-11T11:25:55.148Z,101298.28
2023-04-11T11:28:21.999Z,101288.78
2023-04-11T11:30:57.685Z,101292.72
2023-04-11T11:33:26.690Z,101306.63
2023-04-11T11:35:57.082Z,101304.53
2023-04-11T11:38:27.069Z,101304.75
2023-04-11T11:40:53.961Z,101312.13
2023-04-11T11:43:20.477Z,101304.59
2023-04-11T11:45:47.342Z,101298.16
2023-04-11T11:48:24.001Z,101290.50
2023-04-11T11:50:57.668Z,101321.25
2023-04-11T11:53:24.876Z,101303.56
2023-04-11T11:55:51.611Z,101293.69
2023-04-11T11:58:19.610Z,101317.00
2023-04-11T12:00:50.416Z,101308.06
2023-04-11T12:03:18.832Z,101309.50
2023-04-11T12:05:47.599Z,101305.41
2023-04-11T12:08:14.737Z,101314.19
2023-04-11T12:10:43.575Z,101319.63
2023-04-11T12:13:16.008Z,101314.78
2023-04-11T12:15:52.526Z,101323.44
2023-04-11T12:18:23.179Z,101308.44
2023-04-11T12:20:50.339Z,101323.25
2023-04-11T12:23:17.802Z,101319.97
2023-04-11T12:25:44.377Z,101319.66
2023-04-11T12:28:11.337Z,101317.84
2023-04-11T12:30:37.907Z,101299.78
2023-04-11T12:33:04.688Z,101330.50
2023-04-11T12:35:32.186Z,101318.88
2023-04-11T12:37:58.740Z,101307.19
2023-04-11T12:40:25.686Z,101310.41
2023-04-11T12:42:56.150Z,101309.25
2023-04-11T12:45:24.208Z,101309.41
2023-04-11T12:47:51.011Z,101320.44
2023-04-11T12:50:17.957Z,101298.03
2023-04-11T12:52:44.489Z,101300.34
2023-04-11T12:55:11.098Z,101315.28
2023-04-11T12:57:37.738Z,101312.50
2023-04-11T13:00:08.072Z,101303.88
2023-04-11T13:02:42.069Z,101309.22
2023-04-11T13:05:11.756Z,101331.84
2023-04-11T13:07:39.102Z,101311.41
2023-04-11T13:10:08.956Z,101324.47
2023-04-11T13:12:41.125Z,101315.94
2023-04-11T13:15:09.407Z,101305.94
2023-04-11T13:17:35.982Z,101277.19
2023-04-11T13:20:03.425Z,101327.19
2023-04-11T13:22:29.887Z,101315.72
2023-04-11T13:24:56.287Z,101311.22
2023-04-11T13:27:22.999Z,101274.84
2023-04-11T13:29:49.493Z,101310.06
2023-04-11T13:32:16.063Z,101313.03
2023-04-11T13:34:42.538Z,101319.13
2023-04-11T13:37:09.075Z,101312.84
2023-04-11T13:39:35.515Z,101302.25
2023-04-11T13:42:01.984Z,101301.41
2023-04-11T13:44:28.462Z,101318.97
2023-04-11T13:46:54.927Z,101331.53
2023-04-11T13:49:21.311Z,101327.97
2023-04-11T13:51:47.743Z,101322.63
2023-04-11T13:54:14.186Z,101314.31
2023-04-11T13:56:41.170Z,101316.66
2023-04-11T13:59:07.580Z,101314.63
2023-04-11T14:01:34.158Z,101329.75
2023-04-11T14:04:01.257Z,101316.78
2023-04-11T14:06:28.313Z,101322.19
2023-04-11T14:08:54.743Z,101311.22
2023-04-11T14:11:21.614Z,101318.59
2023-04-11T14:13:48.878Z,101293.31
2023-04-11T14:16:15.416Z,101282.75
2023-04-11T14:18:42.150Z,101287.81
2023-04-11T14:21:08.841Z,101279.66
2023-04-11T14:23:35.980Z,101283.38
2023-04-11T14:26:02.783Z,101272.94
2023-04-11T14:28:29.241Z,101273.84
2023-04-11T14:30:56.500Z,101279.72
2023-04-11T14:33:23.451Z,101287.19
2023-04-11T14:35:50.705Z,101290.31
2023-04-11T14:38:17.181Z,101291.47
2023-04-11T14:40:44.397Z,101289.78
2023-04-11T14:43:11.235Z,101271.09
2023-04-11T14:45:37.797Z,101281.91
2023-04-11T14:48:04.632Z,101283.09
2023-04-11T14:50:31.215Z,101270.94
2023-04-11T14:52:57.812Z,101262.03
2023-04-11T14:55:24.231Z,101269.00
2023-04-11T14:57:55.239Z,101276.84
2023-04-11T15:00:22.337Z,101274.78
2023-04-11T15:02:51.954Z,101270.28
2023-04-11T15:05:19.615Z,101262.72
2023-04-11T15:07:47.839Z,101263.47
2023-04-11T15:10:16.305Z,101256.00
2023-04-11T15:12:42.754Z,101251.34
2023-04-11T15:15:11.082Z,101254.81
2023-04-11T15:17:40.756Z,101255.25
2023-04-11T15:20:09.532Z,101244.56
2023-04-11T15:22:39.495Z,101248.84
2023-04-11T15:25:08.273Z,101238.38
2023-04-11T15:27:34.846Z,101243.41
2023-04-11T15:30:02.277Z,101235.34
2023-04-11T15:32:28.953Z,101226.84
2023-04-11T15:34:56.722Z,101238.19
2023-04-11T15:37:23.251Z,101223.94
2023-04-11T15:39:50.007Z,101232.47
2023-04-11T15:42:16.865Z,101222.97
2023-04-11T15:44:46.408Z,101229.53
2023-04-11T15:47:12.938Z,101217.53
2023-04-11T15:49:39.781Z,101216.59
2023-04-11T15:52:06.920Z,101210.84
2023-04-11T15:54:33.428Z,101223.16
2023-04-11T15:56:59.895Z,101207.34
2023-04-11T15:59:26.950Z,101203.13
2023-04-11T16:01:53.491Z,101212.81
2023-04-11T16:04:20.543Z,101208.19
2023-04-11T16:06:47.280Z,101188.66
2023-04-11T16:09:13.740Z,101199.34
2023-04-11T16:11:40.563Z,101208.38
2023-04-11T16:14:07.128Z,101204.94
2023-04-11T16:16:33.622Z,101207.81
2023-04-11T16:19:00.227Z,101208.25
2023-04-11T16:21:27.203Z,101206.22
2023-04-11T16:23:54.860Z,101198.25
2023-04-11T16:26:21.672Z,101180.50
2023-04-11T16:28:48.848Z,101192.31
2023-04-11T16:31:21.682Z,101179.13
2023-04-11T16:33:48.180Z,101182.44
2023-04-11T16:36:14.721Z,101168.16
2023-04-11T16:38:41.146Z,101173.66
2023-04-11T16:41:07.656Z,101194.03
2023-04-11T16:43:34.122Z,101175.66
2023-04-11T16:46:00.703Z,101172.47
2023-04-11T16:48:27.246Z,101186.34
2023-04-11T16:50:53.744Z,101186.84
2023-04-11T16:53:20.373Z,101177.34
2023-04-11T16:55:46.879Z,101183.22
2023-04-11T16:58:13.307Z,101179.72
2023-04-11T17:00:39.740Z,101170.72
2023-04-11T17:03:07.225Z,101160.44
2023-04-11T17:05:36.557Z,101162.66
2023-04-11T17:08:03.000Z,101165.03
2023-04-11T17:10:29.609Z,101148.91
2023-04-11T17:12:58.227Z,101151.72
2023-04-11T17:15:24.652Z,101144.88
2023-04-11T17:17:51.175Z,101155.06
2023-04-11T17:20:17.789Z,101121.34
2023-04-11T17:22:44.915Z,101145.41
2023-04-11T17:25:11.795Z,101150.84
2023-04-11T17:27:38.821Z,101152.19
2023-04-11T17:30:05.988Z,101148.97
2023-04-11T17:32:32.558Z,101151.53
2023-04-11T17:35:00.675Z,101147.22
2023-04-11T17:37:27.711Z,101135.22
2023-04-11T17:39:54.550Z,101115.00
2023-04-11T17:42:21.311Z,101121.28
2023-04-11T17:44:47.802Z,101120.31
2023-04-11T17:47:14.280Z,101108.53
2023-04-11T17:49:40.777Z,101106.28
2023-04-11T17:52:07.230Z,101100.13
2023-04-11T17:54:34.071Z,101097.25
2023-04-11T17:57:01.159Z,101095.38
2023-04-11T17:59:27.731Z,101099.75
2023-04-11T18:01:55.933Z,101091.06
2023-04-11T18:04:23.193Z,101097.72
2023-04-11T18:06:49.737Z,101092.63
2023-04-11T18:09:16.980Z,101099.75
2023-04-11T18:11:43.869Z,101101.47
2023-04-11T18:14:10.699Z,101091.56
2023-04-11T18:16:39.123Z,101088.84
2023-04-11T18:19:05.990Z,101089.31
2023-04-11T18:21:32.581Z,101082.19
2023-04-11T18:23:59.141Z,101055.38
2023-04-11T18:26:25.857Z,101080.59
2023-04-11T18:28:52.340Z,101067.91
2023-04-11T18:31:18.909Z,101049.19
2023-04-11T18:33:47.554Z,101065.56
2023-04-11T18:36:14.237Z,101059.53
2023-04-11T18:38:40.927Z,101063.31
2023-04-11T18:41:08.005Z,101062.06
2023-04-11T18:43:35.621Z,101057.47
2023-04-11T18:46:02.221Z,101054.50
2023-04-11T18:48:28.738Z,101059.53
2023-04-11T18:51:03.502Z,101056.19
2023-04-11T18:53:30.875Z,101054.03
2023-04-11T18:55:57.897Z,101049.19
2023-04-11T18:58:26.150Z,101050.63
2023-04-11T19:00:53.691Z,101044.22
2023-04-11T19:03:21.245Z,101041.31
2023-04-11T19:05:48.230Z,101045.09
2023-04-11T19:08:14.892Z,101044.13
2023-04-11T19:10:41.396Z,101033.72
2023-04-11T19:13:07.936Z,101034.06
2023-04-11T19:15:34.373Z,101030.66
2023-04-11T19:18:01.714Z,101007.16
2023-04-11T19:20:29.428Z,101021.47
2023-04-11T19:22:55.921Z,101027.94
2023-04-11T19:25:22.407Z,101022.91
2023-04-11T19:27:49.672Z,101012.22
2023-04-11T19:30:16.345Z,101015.47
2023-04-11T19:32:47.654Z,101021.91
2023-04-11T19:35:14.689Z,101021.34
2023-04-11T19:37:41.652Z,100993.94
2023-04-11T19:40:11.067Z,101005.16
2023-04-11T19:42:39.135Z,101005.78
2023-04-11T19:45:06.549Z,101000.44
2023-04-11T19:47:33.150Z,100996.56
2023-04-11T19:50:00.904Z,100986.50
2023-04-11T19:52:27.943Z,100985.34
2023-04-11T19:54:55.773Z,100984.38
2023-04-11T19:57:23.323Z,100975.25
2023-04-11T19:59:50.583Z,100970.50
2023-04-11T20:02:17.190Z,100954.53
2023-04-11T20:04:44.602Z,100957.50
2023-04-11T20:07:11.460Z,100953.34
2023-04-11T20:09:37.936Z,100951.75
2023-04-11T20:12:06.197Z,100945.28
2023-04-11T20:14:33.308Z,100941.94
2023-04-11T20:16:59.974Z,100941.56
2023-04-11T20:19:31.659Z,100937.19
2023-04-11T20:22:01.146Z,100922.69
2023-04-11T20:24:27.815Z,100916.06
2023-04-11T20:26:54.948Z,100918.31
2023-04-11T20:29:24.648Z,100906.63
2023-04-11T20:31:51.123Z,100907.44
2023-04-11T20:34:17.738Z,100899.47
2023-04-11T20:36:44.541Z,100898.19
2023-04-11T20:39:11.020Z,100880.97
2023-04-11T20:41:40.298Z,100872.53
2023-04-11T20:44:06.866Z,100866.03
2023-04-11T20:46:39.282Z,100865.03
2023-04-11T20:49:05.816Z,100860.50
2023-04-11T20:51:32.203Z,100861.59
2023-04-11T20:53:58.930Z,100839.78
2023-04-11T20:56:25.444Z,100842.56
2023-04-11T20:58:51.897Z,100831.34
2023-04-11T21:01:18.340Z,100827.28
2023-04-11T21:03:45.160Z,100822.72
2023-04-11T21:06:11.687Z,100813.59
2023-04-11T21:08:38.145Z,100807.94
2023-04-11T21:11:05.643Z,100804.94
2023-04-11T21:13:32.208Z,100789.84
2023-04-11T21:15:58.852Z,100751.97
2023-04-11T21:18:25.486Z,100787.03
2023-04-11T21:20:51.896Z,100786.81
2023-04-11T21:23:19.657Z,100797.66
2023-04-11T21:25:46.933Z,100786.09
2023-04-11T21:28:13.579Z,100782.00
2023-04-11T21:30:40.068Z,100788.47
2023-04-11T21:33:06.633Z,100779.25
2023-04-11T21:35:33.225Z,100783.31
2023-04-11T21:37:59.762Z,100770.44
2023-04-11T21:40:26.280Z,100765.41
2023-04-11T21:42:53.170Z,100761.91
2023-04-11T21:45:19.588Z,100751.16
2023-04-11T21:47:46.785Z,100757.00
2023-04-11T21:50:13.353Z,100748.38
2023-04-11T21:52:39.872Z,100748.56
2023-04-11T21:55:08.851Z,100748.56
2023-04-11T21:57:35.757Z,100742.34
2023-04-11T22:00:02.502Z,100747.84
2023-04-11T22:02:29.201Z,100697.28
2023-04-11T22:07:31.665Z,100735.38
2023-04-11T22:10:03.838Z,100728.72
2023-04-11T22:12:30.917Z,100729.91
2023-04-11T22:14:57.404Z,100731.88
2023-04-11T22:17:23.904Z,100716.16
2023-04-11T22:19:50.389Z,100718.34
2023-04-11T22:22:17.415Z,100711.59
2023-04-11T22:24:46.322Z,100697.16
2023-04-11T22:27:13.672Z,100709.84
2023-04-11T22:29:41.313Z,100702.00
2023-04-11T22:32:08.183Z,100693.91
2023-04-11T22:34:34.810Z,100683.03
2023-04-11T22:37:01.341Z,100675.31
2023-04-11T22:39:27.778Z,100673.75
2023-04-11T22:41:54.575Z,100618.44
2023-04-11T22:44:21.084Z,100666.06
2023-04-11T22:47:06.505Z,100656.19
2023-04-11T22:49:40.244Z,100671.06
2023-04-11T23:03:02.594Z,100566.81
2023-04-11T23:56:19.426Z,100514.25
2023-04-11T23:58:45.951Z,100499.97
